Terminal Aerodrome Forecast
Issued by NWS

Home | Current Version | Previous Version | Text Only | Print | Product List | Glossary On
Versions: 1 2 3 4 5 6 7 8 9 10 11 12 13
000
FTUS46 KSGX 020500
TAFPSP
TAF
KPSP 020520Z 0206/0306 VRB05KT P6SM SCT090 BKN150
     FM021800 11008KT P6SM VCTS SCT090CB BKN150
     FM030200 33008KT P6SM SCT090 BKN150=

USA.gov is the U.S. government's official web portal to all federal, state and local government web resources and services.